sensor_id;sensor_type;location;lat;lon;timestamp;pressure;altitude;pressure_sealevel;temperature;humidity
53635;BME280;39542;-34.932;138.594;2023-12-20T00:00:25;101532.24;;;22.61;49.90
53635;BME280;39542;-34.932;138.594;2023-12-20T00:00:59;101530.85;;;22.60;49.88
53635;BME280;39542;-34.932;138.594;2023-12-20T00:01:33;101542.42;;;22.60;49.91
53635;BME280;39542;-34.932;138.594;2023-12-20T00:02:06;101540.63;;;22.60;49.88
53635;BME280;39542;-34.932;138.594;2023-12-20T00:02:40;101530.02;;;22.60;49.89
53635;BME280;39542;-34.932;138.594;2023-12-20T00:03:14;101537.41;;;22.61;49.89
53635;BME280;39542;-34.932;138.594;2023-12-20T00:03:47;101526.62;;;22.60;49.92
53635;BME280;39542;-34.932;138.594;2023-12-20T00:04:22;101526.84;;;22.63;49.84
53635;BME280;39542;-34.932;138.594;2023-12-20T00:04:56;101527.88;;;22.63;49.86
53635;BME280;39542;-34.932;138.594;2023-12-20T00:05:30;101517.44;;;22.64;49.89
53635;BME280;39542;-34.932;138.594;2023-12-20T00:06:04;101513.55;;;22.66;49.77
53635;BME280;39542;-34.932;138.594;2023-12-20T00:06:38;101518.39;;;22.68;49.79
53635;BME280;39542;-34.932;138.594;2023-12-20T00:07:12;101509.48;;;22.67;49.79
53635;BME280;39542;-34.932;138.594;2023-12-20T00:07:46;101517.50;;;22.69;49.78
53635;BME280;39542;-34.932;138.594;2023-12-20T00:08:19;101518.52;;;22.69;49.78
53635;BME280;39542;-34.932;138.594;2023-12-20T00:08:53;101515.64;;;22.69;49.77
53635;BME280;39542;-34.932;138.594;2023-12-20T00:09:26;101515.61;;;22.68;49.82
53635;BME280;39542;-34.932;138.594;2023-12-20T00:10:00;101511.42;;;22.67;49.81
53635;BME280;39542;-34.932;138.594;2023-12-20T00:10:34;101512.53;;;22.66;49.85
53635;BME280;39542;-34.932;138.594;2023-12-20T00:11:08;101510.99;;;22.66;49.80
53635;BME280;39542;-34.932;138.594;2023-12-20T00:11:41;101511.56;;;22.68;49.81
53635;BME280;39542;-34.932;138.594;2023-12-20T00:12:15;101509.79;;;22.67;49.72
53635;BME280;39542;-34.932;138.594;2023-12-20T00:12:49;101507.23;;;22.68;49.81
53635;BME280;39542;-34.932;138.594;2023-12-20T00:13:22;101502.12;;;22.67;49.81
53635;BME280;39542;-34.932;138.594;2023-12-20T00:13:56;101504.74;;;22.68;49.79
53635;BME280;39542;-34.932;138.594;2023-12-20T00:14:30;101504.71;;;22.70;49.74
53635;BME280;39542;-34.932;138.594;2023-12-20T00:15:04;101501.50;;;22.70;49.75
53635;BME280;39542;-34.932;138.594;2023-12-20T00:15:38;101498.28;;;22.72;49.71
53635;BME280;39542;-34.932;138.594;2023-12-20T00:16:12;101498.96;;;22.73;49.71
53635;BME280;39542;-34.932;138.594;2023-12-20T00:16:46;101497.23;;;22.69;49.74
53635;BME280;39542;-34.932;138.594;2023-12-20T00:17:20;101497.24;;;22.71;49.71
53635;BME280;39542;-34.932;138.594;2023-12-20T00:17:54;101498.09;;;22.70;49.65
53635;BME280;39542;-34.932;138.594;2023-12-20T00:18:28;101501.62;;;22.71;49.70
53635;BME280;39542;-34.932;138.594;2023-12-20T00:19:01;101496.45;;;22.70;49.72
53635;BME280;39542;-34.932;138.594;2023-12-20T00:19:35;101492.83;;;22.73;49.69
53635;BME280;39542;-34.932;138.594;2023-12-20T00:20:10;101494.75;;;22.73;49.71
53635;BME280;39542;-34.932;138.594;2023-12-20T00:20:43;101496.11;;;22.74;49.68
53635;BME280;39542;-34.932;138.594;2023-12-20T00:21:17;101493.59;;;22.72;49.69
53635;BME280;39542;-34.932;138.594;2023-12-20T00:21:51;101491.98;;;22.74;49.64
53635;BME280;39542;-34.932;138.594;2023-12-20T00:22:25;101489.47;;;22.74;49.68
53635;BME280;39542;-34.932;138.594;2023-12-20T00:22:59;101491.02;;;22.73;49.67
53635;BME280;39542;-34.932;138.594;2023-12-20T00:23:32;101486.46;;;22.72;49.64
53635;BME280;39542;-34.932;138.594;2023-12-20T00:24:06;101482.07;;;22.72;49.63
53635;BME280;39542;-34.932;138.594;2023-12-20T00:24:40;101482.51;;;22.73;49.64
53635;BME280;39542;-34.932;138.594;2023-12-20T00:25:14;101483.68;;;22.75;49.66
53635;BME280;39542;-34.932;138.594;2023-12-20T00:25:48;101483.04;;;22.78;49.59
53635;BME280;39542;-34.932;138.594;2023-12-20T00:26:21;101480.54;;;22.76;49.64
53635;BME280;39542;-34.932;138.594;2023-12-20T00:26:55;101486.06;;;22.75;49.58
53635;BME280;39542;-34.932;138.594;2023-12-20T00:27:29;101488.13;;;22.76;49.63
53635;BME280;39542;-34.932;138.594;2023-12-20T00:28:02;101488.64;;;22.78;49.58
53635;BME280;39542;-34.932;138.594;2023-12-20T00:28:36;101487.44;;;22.80;49.55
53635;BME280;39542;-34.932;138.594;2023-12-20T00:29:10;101482.08;;;22.79;49.55
53635;BME280;39542;-34.932;138.594;2023-12-20T00:29:44;101481.98;;;22.81;49.53
53635;BME280;39542;-34.932;138.594;2023-12-20T00:30:17;101482.57;;;22.83;49.50
53635;BME280;39542;-34.932;138.594;2023-12-20T00:30:51;101481.67;;;22.81;49.52
53635;BME280;39542;-34.932;138.594;2023-12-20T00:31:25;101482.33;;;22.79;49.54
53635;BME280;39542;-34.932;138.594;2023-12-20T00:31:59;101486.48;;;22.80;49.55
53635;BME280;39542;-34.932;138.594;2023-12-20T00:32:32;101482.74;;;22.79;49.54
53635;BME280;39542;-34.932;138.594;2023-12-20T00:33:06;101482.25;;;22.80;49.47
53635;BME280;39542;-34.932;138.594;2023-12-20T00:33:40;101482.67;;;22.79;49.48
53635;BME280;39542;-34.932;138.594;2023-12-20T00:34:13;101480.89;;;22.80;49.54
53635;BME280;39542;-34.932;138.594;2023-12-20T00:34:47;101489.26;;;22.81;49.48
53635;BME280;39542;-34.932;138.594;2023-12-20T00:35:21;101484.03;;;22.81;49.50
53635;BME280;39542;-34.932;138.594;2023-12-20T00:35:55;101485.43;;;22.83;49.44
53635;BME280;39542;-34.932;138.594;2023-12-20T00:36:28;101479.90;;;22.81;49.54
53635;BME280;39542;-34.932;138.594;2023-12-20T00:37:02;101480.72;;;22.82;49.51
53635;BME280;39542;-34.932;138.594;2023-12-20T00:37:36;101488.56;;;22.82;49.55
53635;BME280;39542;-34.932;138.594;2023-12-20T00:38:09;101490.72;;;22.83;49.52
53635;BME280;39542;-34.932;138.594;2023-12-20T00:38:43;101486.57;;;22.82;49.44
53635;BME280;39542;-34.932;138.594;2023-12-20T00:39:17;101482.94;;;22.84;49.44
53635;BME280;39542;-34.932;138.594;2023-12-20T00:39:51;101489.41;;;22.82;49.46
53635;BME280;39542;-34.932;138.594;2023-12-20T00:40:25;101484.29;;;22.84;49.51
53635;BME280;39542;-34.932;138.594;2023-12-20T00:40:59;101481.08;;;22.84;49.48
53635;BME280;39542;-34.932;138.594;2023-12-20T00:41:32;101484.32;;;22.82;49.42
53635;BME280;39542;-34.932;138.594;2023-12-20T00:42:06;101483.36;;;22.83;49.43
53635;BME280;39542;-34.932;138.594;2023-12-20T00:42:40;101486.71;;;22.83;49.44
53635;BME280;39542;-34.932;138.594;2023-12-20T00:43:14;101482.17;;;22.85;49.43
53635;BME280;39542;-34.932;138.594;2023-12-20T00:43:47;101481.11;;;22.84;49.44
53635;BME280;39542;-34.932;138.594;2023-12-20T00:44:21;101476.54;;;22.85;49.44
53635;BME280;39542;-34.932;138.594;2023-12-20T00:44:55;101478.32;;;22.84;49.47
53635;BME280;39542;-34.932;138.594;2023-12-20T00:45:28;101480.31;;;22.84;49.52
53635;BME280;39542;-34.932;138.594;2023-12-20T00:46:02;101474.99;;;22.84;49.44
53635;BME280;39542;-34.932;138.594;2023-12-20T00:46:36;101475.23;;;22.83;49.47
53635;BME280;39542;-34.932;138.594;2023-12-20T00:47:10;101476.41;;;22.84;49.44
53635;BME280;39542;-34.932;138.594;2023-12-20T00:47:44;101479.86;;;22.85;49.47
53635;BME280;39542;-34.932;138.594;2023-12-20T00:48:18;101474.81;;;22.84;49.44
53635;BME280;39542;-34.932;138.594;2023-12-20T00:48:51;101476.43;;;22.86;49.44
53635;BME280;39542;-34.932;138.594;2023-12-20T00:49:25;101471.87;;;22.84;49.45
53635;BME280;39542;-34.932;138.594;2023-12-20T00:49:59;101471.64;;;22.84;49.45
53635;BME280;39542;-34.932;138.594;2023-12-20T00:50:33;101466.56;;;22.85;49.50
53635;BME280;39542;-34.932;138.594;2023-12-20T00:51:07;101470.24;;;22.86;49.44
53635;BME280;39542;-34.932;138.594;2023-12-20T00:51:41;101474.36;;;22.85;49.44
53635;BME280;39542;-34.932;138.594;2023-12-20T00:52:15;101475.98;;;22.85;49.44
53635;BME280;39542;-34.932;138.594;2023-12-20T00:52:49;101468.76;;;22.83;49.44
53635;BME280;39542;-34.932;138.594;2023-12-20T00:53:22;101468.98;;;22.83;49.47
53635;BME280;39542;-34.932;138.594;2023-12-20T00:53:56;101468.12;;;22.87;49.40
53635;BME280;39542;-34.932;138.594;2023-12-20T00:54:30;101469.95;;;22.86;49.39
53635;BME280;39542;-34.932;138.594;2023-12-20T00:55:04;101468.54;;;22.86;49.42
53635;BME280;39542;-34.932;138.594;2023-12-20T00:55:38;101467.87;;;22.88;49.41
53635;BME280;39542;-34.932;138.594;2023-12-20T00:56:11;101467.59;;;22.87;49.39
53635;BME280;39542;-34.932;138.594;2023-12-20T00:56:45;101465.35;;;22.87;49.37
53635;BME280;39542;-34.932;138.594;2023-12-20T00:57:19;101465.12;;;22.87;49.34
53635;BME280;39542;-34.932;138.594;2023-12-20T00:57:53;101468.03;;;22.84;49.39
53635;BME280;39542;-34.932;138.594;2023-12-20T00:58:26;101467.67;;;22.88;49.37
53635;BME280;39542;-34.932;138.594;2023-12-20T00:59:00;101472.15;;;22.88;49.40
53635;BME280;39542;-34.932;138.594;2023-12-20T00:59:34;101467.28;;;22.89;49.36
53635;BME280;39542;-34.932;138.594;2023-12-20T01:00:09;101464.61;;;22.89;49.32
53635;BME280;39542;-34.932;138.594;2023-12-20T01:00:43;101470.16;;;22.89;49.33
53635;BME280;39542;-34.932;138.594;2023-12-20T01:01:17;101472.56;;;22.89;49.30
53635;BME280;39542;-34.932;138.594;2023-12-20T01:01:52;101469.72;;;22.89;49.34
53635;BME280;39542;-34.932;138.594;2023-12-20T01:02:26;101468.08;;;22.88;49.34
53635;BME280;39542;-34.932;138.594;2023-12-20T01:03:00;101462.54;;;22.87;49.35
53635;BME280;39542;-34.932;138.594;2023-12-20T01:03:34;101460.94;;;22.88;49.37
53635;BME280;39542;-34.932;138.594;2023-12-20T01:04:07;101459.23;;;22.88;49.32
53635;BME280;39542;-34.932;138.594;2023-12-20T01:04:41;101456.47;;;22.88;49.38
53635;BME280;39542;-34.932;138.594;2023-12-20T01:05:15;101453.11;;;22.87;49.33
53635;BME280;39542;-34.932;138.594;2023-12-20T01:05:48;101451.90;;;22.88;49.32
53635;BME280;39542;-34.932;138.594;2023-12-20T01:06:22;101459.28;;;22.87;49.36
53635;BME280;39542;-34.932;138.594;2023-12-20T01:06:56;101451.52;;;22.86;49.33
53635;BME280;39542;-34.932;138.594;2023-12-20T01:07:30;101453.29;;;22.85;49.40
53635;BME280;39542;-34.932;138.594;2023-12-20T01:08:04;101461.54;;;22.86;49.34
53635;BME280;39542;-34.932;138.594;2023-12-20T01:08:39;101456.50;;;22.87;49.33
53635;BME280;39542;-34.932;138.594;2023-12-20T01:09:13;101455.94;;;22.87;49.35
53635;BME280;39542;-34.932;138.594;2023-12-20T01:09:47;101452.63;;;22.88;49.33
53635;BME280;39542;-34.932;138.594;2023-12-20T01:10:21;101460.02;;;22.89;49.30
53635;BME280;39542;-34.932;138.594;2023-12-20T01:10:55;101464.14;;;22.90;49.31
53635;BME280;39542;-34.932;138.594;2023-12-20T01:11:29;101460.46;;;22.88;49.33
53635;BME280;39542;-34.932;138.594;2023-12-20T01:12:03;101463.79;;;22.89;49.33
53635;BME280;39542;-34.932;138.594;2023-12-20T01:12:37;101460.19;;;22.88;49.33
53635;BME280;39542;-34.932;138.594;2023-12-20T01:13:11;101455.56;;;22.88;49.33
53635;BME280;39542;-34.932;138.594;2023-12-20T01:13:45;101454.48;;;22.91;49.28
53635;BME280;39542;-34.932;138.594;2023-12-20T01:14:19;101453.36;;;22.91;49.27
53635;BME280;39542;-34.932;138.594;2023-12-20T01:14:53;101451.40;;;22.91;49.28
53635;BME280;39542;-34.932;138.594;2023-12-20T01:15:27;101450.83;;;22.90;49.26
53635;BME280;39542;-34.932;138.594;2023-12-20T01:16:00;101449.62;;;22.90;49.28
53635;BME280;39542;-34.932;138.594;2023-12-20T01:16:34;101452.15;;;22.93;49.21
53635;BME280;39542;-34.932;138.594;2023-12-20T01:17:08;101459.49;;;22.93;49.24
53635;BME280;39542;-34.932;138.594;2023-12-20T01:17:42;101458.45;;;22.93;49.26
53635;BME280;39542;-34.932;138.594;2023-12-20T01:18:16;101458.19;;;22.93;49.23
53635;BME280;39542;-34.932;138.594;2023-12-20T01:18:50;101458.69;;;22.92;49.25
53635;BME280;39542;-34.932;138.594;2023-12-20T01:19:24;101451.14;;;22.91;49.25
53635;BME280;39542;-34.932;138.594;2023-12-20T01:19:57;101454.95;;;22.93;49.19
53635;BME280;39542;-34.932;138.594;2023-12-20T01:20:31;101453.99;;;22.91;49.23
53635;BME280;39542;-34.932;138.594;2023-12-20T01:21:05;101456.21;;;22.91;49.20
53635;BME280;39542;-34.932;138.594;2023-12-20T01:21:39;101450.72;;;22.91;49.22
53635;BME280;39542;-34.932;138.594;2023-12-20T01:22:13;101448.86;;;22.91;49.21
53635;BME280;39542;-34.932;138.594;2023-12-20T01:22:47;101449.74;;;22.90;49.21
53635;BME280;39542;-34.932;138.594;2023-12-20T01:23:21;101450.88;;;22.91;49.22
53635;BME280;39542;-34.932;138.594;2023-12-20T01:23:55;101448.39;;;22.91;49.18
53635;BME280;39542;-34.932;138.594;2023-12-20T01:24:28;101451.60;;;22.91;49.22
53635;BME280;39542;-34.932;138.594;2023-12-20T01:25:02;101453.92;;;22.93;49.20
53635;BME280;39542;-34.932;138.594;2023-12-20T01:25:36;101445.76;;;22.93;49.24
53635;BME280;39542;-34.932;138.594;2023-12-20T01:26:10;101443.45;;;22.94;49.19
53635;BME280;39542;-34.932;138.594;2023-12-20T01:26:44;101441.23;;;22.94;49.22
53635;BME280;39542;-34.932;138.594;2023-12-20T01:27:18;101447.48;;;22.93;49.22
53635;BME280;39542;-34.932;138.594;2023-12-20T01:27:52;101440.32;;;22.92;49.22
53635;BME280;39542;-34.932;138.594;2023-12-20T01:28:26;101437.29;;;22.93;49.21
53635;BME280;39542;-34.932;138.594;2023-12-20T01:29:00;101436.46;;;22.93;49.17
53635;BME280;39542;-34.932;138.594;2023-12-20T01:29:33;101434.83;;;22.95;49.17
53635;BME280;39542;-34.932;138.594;2023-12-20T01:30:08;101439.39;;;22.96;49.15
53635;BME280;39542;-34.932;138.594;2023-12-20T01:30:42;101444.32;;;22.95;49.17
53635;BME280;39542;-34.932;138.594;2023-12-20T01:31:16;101447.42;;;22.96;49.17
53635;BME280;39542;-34.932;138.594;2023-12-20T01:31:50;101448.78;;;22.93;49.18
53635;BME280;39542;-34.932;138.594;2023-12-20T01:32:24;101450.92;;;22.93;49.23
53635;BME280;39542;-34.932;138.594;2023-12-20T01:32:59;101450.07;;;22.92;49.25
53635;BME280;39542;-34.932;138.594;2023-12-20T01:33:33;101439.95;;;22.93;49.24
53635;BME280;39542;-34.932;138.594;2023-12-20T01:34:06;101441.70;;;22.93;49.19
53635;BME280;39542;-34.932;138.594;2023-12-20T01:34:41;101441.28;;;22.95;49.20
53635;BME280;39542;-34.932;138.594;2023-12-20T01:35:15;101440.36;;;22.98;49.14
53635;BME280;39542;-34.932;138.594;2023-12-20T01:35:49;101442.80;;;22.96;49.20
53635;BME280;39542;-34.932;138.594;2023-12-20T01:36:22;101441.29;;;22.98;49.10
53635;BME280;39542;-34.932;138.594;2023-12-20T01:36:56;101442.90;;;22.98;49.12
53635;BME280;39542;-34.932;138.594;2023-12-20T01:37:29;101439.59;;;22.97;49.16
53635;BME280;39542;-34.932;138.594;2023-12-20T01:38:03;101440.57;;;22.97;49.20
53635;BME280;39542;-34.932;138.594;2023-12-20T01:38:37;101438.65;;;22.96;49.17
53635;BME280;39542;-34.932;138.594;2023-12-20T01:39:11;101435.95;;;22.98;49.14
53635;BME280;39542;-34.932;138.594;2023-12-20T01:39:44;101432.43;;;22.97;49.17
53635;BME280;39542;-34.932;138.594;2023-12-20T01:40:18;101438.92;;;22.98;49.17
53635;BME280;39542;-34.932;138.594;2023-12-20T01:40:53;101436.04;;;22.97;49.19
53635;BME280;39542;-34.932;138.594;2023-12-20T01:41:26;101427.86;;;22.97;49.16
53635;BME280;39542;-34.932;138.594;2023-12-20T01:42:00;101425.64;;;22.96;49.11
53635;BME280;39542;-34.932;138.594;2023-12-20T01:42:34;101429.10;;;22.97;49.14
53635;BME280;39542;-34.932;138.594;2023-12-20T01:43:09;101422.13;;;22.97;49.17
53635;BME280;39542;-34.932;138.594;2023-12-20T01:43:42;101424.32;;;22.97;49.16
53635;BME280;39542;-34.932;138.594;2023-12-20T01:44:16;101423.26;;;22.98;49.09
53635;BME280;39542;-34.932;138.594;2023-12-20T01:44:50;101420.11;;;22.97;49.09
53635;BME280;39542;-34.932;138.594;2023-12-20T01:45:24;101420.89;;;22.97;49.12
53635;BME280;39542;-34.932;138.594;2023-12-20T01:45:58;101419.68;;;22.98;49.11
53635;BME280;39542;-34.932;138.594;2023-12-20T01:46:32;101429.14;;;22.98;49.06
53635;BME280;39542;-34.932;138.594;2023-12-20T01:47:06;101428.68;;;22.97;49.14
53635;BME280;39542;-34.932;138.594;2023-12-20T01:47:40;101422.64;;;22.98;49.13
53635;BME280;39542;-34.932;138.594;2023-12-20T01:48:14;101427.44;;;22.99;49.07
53635;BME280;39542;-34.932;138.594;2023-12-20T01:48:48;101429.03;;;22.98;49.10
53635;BME280;39542;-34.932;138.594;2023-12-20T01:49:22;101429.87;;;23.01;49.04
53635;BME280;39542;-34.932;138.594;2023-12-20T01:49:57;101425.58;;;23.00;49.07
53635;BME280;39542;-34.932;138.594;2023-12-20T01:50:32;101422.12;;;22.98;49.11
53635;BME280;39542;-34.932;138.594;2023-12-20T01:51:06;101426.74;;;22.98;49.09
53635;BME280;39542;-34.932;138.594;2023-12-20T01:51:40;101425.74;;;22.95;49.15
53635;BME280;39542;-34.932;138.594;2023-12-20T01:52:14;101432.84;;;22.95;49.12
53635;BME280;39542;-34.932;138.594;2023-12-20T01:52:48;101430.18;;;22.95;49.15
53635;BME280;39542;-34.932;138.594;2023-12-20T01:53:23;101426.42;;;22.96;49.17
53635;BME280;39542;-34.932;138.594;2023-12-20T01:53:59;101425.07;;;22.97;49.05
53635;BME280;39542;-34.932;138.594;2023-12-20T01:54:34;101428.53;;;22.96;49.15
53635;BME280;39542;-34.932;138.594;2023-12-20T01:55:08;101428.50;;;22.96;49.09
53635;BME280;39542;-34.932;138.594;2023-12-20T01:55:42;101432.30;;;22.95;49.12
53635;BME280;39542;-34.932;138.594;2023-12-20T01:56:17;101428.53;;;22.95;49.15
53635;BME280;39542;-34.932;138.594;2023-12-20T01:56:52;101423.08;;;22.97;49.11
53635;BME280;39542;-34.932;138.594;2023-12-20T01:57:26;101422.34;;;22.96;49.01
53635;BME280;39542;-34.932;138.594;2023-12-20T01:58:00;101423.49;;;22.93;49.07
53635;BME280;39542;-34.932;138.594;2023-12-20T01:58:35;101422.76;;;22.94;49.05
53635;BME280;39542;-34.932;138.594;2023-12-20T01:59:11;101427.15;;;22.95;49.07
53635;BME280;39542;-34.932;138.594;2023-12-20T01:59:45;101420.82;;;22.94;49.12
53635;BME280;39542;-34.932;138.594;2023-12-20T02:00:19;101418.74;;;22.94;49.10
53635;BME280;39542;-34.932;138.594;2023-12-20T02:00:55;101415.10;;;22.94;49.09
53635;BME280;39542;-34.932;138.594;2023-12-20T02:01:29;101411.58;;;22.95;49.08
53635;BME280;39542;-34.932;138.594;2023-12-20T02:02:05;101413.32;;;22.94;49.05
53635;BME280;39542;-34.932;138.594;2023-12-20T02:02:40;101409.47;;;22.96;49.05
53635;BME280;39542;-34.932;138.594;2023-12-20T02:03:14;101411.02;;;22.94;49.07
53635;BME280;39542;-34.932;138.594;2023-12-20T02:03:49;101413.76;;;22.93;49.05
53635;BME280;39542;-34.932;138.594;2023-12-20T02:04:23;101409.68;;;22.94;49.06
53635;BME280;39542;-34.932;138.594;2023-12-20T02:04:57;101409.06;;;22.94;49.08
53635;BME280;39542;-34.932;138.594;2023-12-20T02:05:32;101409.44;;;22.95;49.04
53635;BME280;39542;-34.932;138.594;2023-12-20T02:06:07;101406.85;;;22.98;49.04
53635;BME280;39542;-34.932;138.594;2023-12-20T02:06:41;101403.71;;;22.97;49.01
53635;BME280;39542;-34.932;138.594;2023-12-20T02:07:16;101404.01;;;22.96;49.01
53635;BME280;39542;-34.932;138.594;2023-12-20T02:07:50;101408.38;;;22.96;49.00
53635;BME280;39542;-34.932;138.594;2023-12-20T02:08:24;101409.86;;;22.96;48.98
53635;BME280;39542;-34.932;138.594;2023-12-20T02:08:58;101409.75;;;22.95;49.07
53635;BME280;39542;-34.932;138.594;2023-12-20T02:09:33;101411.35;;;22.97;49.06
53635;BME280;39542;-34.932;138.594;2023-12-20T02:10:08;101410.17;;;22.99;49.09
53635;BME280;39542;-34.932;138.594;2023-12-20T02:10:41;101401.71;;;22.98;49.04
53635;BME280;39542;-34.932;138.594;2023-12-20T02:11:15;101409.82;;;22.97;49.06
53635;BME280;39542;-34.932;138.594;2023-12-20T02:11:49;101403.86;;;22.97;49.06
53635;BME280;39542;-34.932;138.594;2023-12-20T02:12:24;101405.69;;;22.99;49.06
53635;BME280;39542;-34.932;138.594;2023-12-20T02:12:58;101399.37;;;22.96;49.11
53635;BME280;39542;-34.932;138.594;2023-12-20T02:13:32;101400.35;;;22.96;49.07
53635;BME280;39542;-34.932;138.594;2023-12-20T02:14:06;101407.61;;;22.95;49.10
53635;BME280;39542;-34.932;138.594;2023-12-20T02:14:39;101405.64;;;22.98;48.98
53635;BME280;39542;-34.932;138.594;2023-12-20T02:15:14;101400.78;;;22.98;49.00
53635;BME280;39542;-34.932;138.594;2023-12-20T02:15:47;101408.49;;;23.00;48.91
53635;BME280;39542;-34.932;138.594;2023-12-20T02:16:21;101402.15;;;22.98;49.05
53635;BME280;39542;-34.932;138.594;2023-12-20T02:16:55;101401.71;;;22.99;48.99
53635;BME280;39542;-34.932;138.594;2023-12-20T02:17:32;101397.12;;;22.99;49.01
53635;BME280;39542;-34.932;138.594;2023-12-20T02:18:06;101396.50;;;23.00;49.00
53635;BME280;39542;-34.932;138.594;2023-12-20T02:18:40;101397.19;;;23.00;48.90
53635;BME280;39542;-34.932;138.594;2023-12-20T02:19:16;101397.91;;;23.00;48.94
53635;BME280;39542;-34.932;138.594;2023-12-20T02:19:51;101393.04;;;23.01;48.95
53635;BME280;39542;-34.932;138.594;2023-12-20T02:20:25;101391.91;;;22.99;48.95
53635;BME280;39542;-34.932;138.594;2023-12-20T02:20:58;101391.51;;;23.00;49.01
53635;BME280;39542;-34.932;138.594;2023-12-20T02:21:34;101388.29;;;23.01;48.94
53635;BME280;39542;-34.932;138.594;2023-12-20T02:22:09;101386.64;;;23.02;48.86
53635;BME280;39542;-34.932;138.594;2023-12-20T02:22:43;101383.22;;;23.03;48.92
53635;BME280;39542;-34.932;138.594;2023-12-20T02:23:17;101383.46;;;23.01;48.94
53635;BME280;39542;-34.932;138.594;2023-12-20T02:23:51;101382.87;;;23.02;48.92
53635;BME280;39542;-34.932;138.594;2023-12-20T02:24:24;101386.73;;;23.05;48.87
53635;BME280;39542;-34.932;138.594;2023-12-20T02:24:58;101385.98;;;23.08;48.84
53635;BME280;39542;-34.932;138.594;2023-12-20T02:25:32;101386.18;;;23.07;48.85
53635;BME280;39542;-34.932;138.594;2023-12-20T02:26:06;101385.53;;;23.08;48.82
53635;BME280;39542;-34.932;138.594;2023-12-20T02:26:40;101382.49;;;23.09;48.82
53635;BME280;39542;-34.932;138.594;2023-12-20T02:27:14;101381.45;;;23.12;48.81
53635;BME280;39542;-34.932;138.594;2023-12-20T02:27:49;101386.83;;;23.14;48.75
53635;BME280;39542;-34.932;138.594;2023-12-20T02:28:23;101381.80;;;23.16;48.71
53635;BME280;39542;-34.932;138.594;2023-12-20T02:28:57;101381.33;;;23.18;48.68
53635;BME280;39542;-34.932;138.594;2023-12-20T02:29:32;101383.69;;;23.16;48.64
53635;BME280;39542;-34.932;138.594;2023-12-20T02:30:07;101384.34;;;23.19;48.57
53635;BME280;39542;-34.932;138.594;2023-12-20T02:30:41;101384.94;;;23.22;48.56
53635;BME280;39542;-34.932;138.594;2023-12-20T02:31:15;101381.58;;;23.21;48.62
53635;BME280;39542;-34.932;138.594;2023-12-20T02:31:49;101377.77;;;23.23;48.67
53635;BME280;39542;-34.932;138.594;2023-12-20T02:32:24;101384.81;;;23.22;48.62
53635;BME280;39542;-34.932;138.594;2023-12-20T02:32:58;101380.91;;;23.22;48.65
53635;BME280;39542;-34.932;138.594;2023-12-20T02:33:33;101374.73;;;23.21;48.64
53635;BME280;39542;-34.932;138.594;2023-12-20T02:34:07;101377.04;;;23.23;48.62
53635;BME280;39542;-34.932;138.594;2023-12-20T02:34:41;101373.95;;;23.25;48.57
53635;BME280;39542;-34.932;138.594;2023-12-20T02:35:15;101374.57;;;23.25;48.62
53635;BME280;39542;-34.932;138.594;2023-12-20T02:35:49;101382.78;;;23.27;48.65
53635;BME280;39542;-34.932;138.594;2023-12-20T02:36:22;101376.88;;;23.26;48.58
53635;BME280;39542;-34.932;138.594;2023-12-20T02:36:56;101377.39;;;23.27;48.58
53635;BME280;39542;-34.932;138.594;2023-12-20T02:37:30;101384.69;;;23.29;48.61
53635;BME280;39542;-34.932;138.594;2023-12-20T02:38:04;101375.12;;;23.29;48.58
53635;BME280;39542;-34.932;138.594;2023-12-20T02:38:38;101380.39;;;23.31;48.51
53635;BME280;39542;-34.932;138.594;2023-12-20T02:39:11;101383.47;;;23.31;48.59
53635;BME280;39542;-34.932;138.594;2023-12-20T02:39:45;101383.92;;;23.32;48.56
53635;BME280;39542;-34.932;138.594;2023-12-20T02:40:19;101372.29;;;23.32;48.49
53635;BME280;39542;-34.932;138.594;2023-12-20T02:40:52;101377.40;;;23.31;48.10
53635;BME280;39542;-34.932;138.594;2023-12-20T02:41:27;101372.31;;;23.32;48.10
53635;BME280;39542;-34.932;138.594;2023-12-20T02:42:00;101365.25;;;23.34;48.21
53635;BME280;39542;-34.932;138.594;2023-12-20T02:42:34;101362.26;;;23.32;48.00
53635;BME280;39542;-34.932;138.594;2023-12-20T02:43:08;101364.43;;;23.31;47.99
53635;BME280;39542;-34.932;138.594;2023-12-20T02:43:42;101360.69;;;23.31;48.04
53635;BME280;39542;-34.932;138.594;2023-12-20T02:44:16;101357.41;;;23.31;48.13
53635;BME280;39542;-34.932;138.594;2023-12-20T02:44:50;101358.24;;;23.32;48.18
53635;BME280;39542;-34.932;138.594;2023-12-20T02:45:24;101356.79;;;23.32;48.16
53635;BME280;39542;-34.932;138.594;2023-12-20T02:45:58;101357.24;;;23.32;48.24
53635;BME280;39542;-34.932;138.594;2023-12-20T02:46:32;101366.98;;;23.32;48.28
53635;BME280;39542;-34.932;138.594;2023-12-20T02:47:06;101365.32;;;23.33;48.28
53635;BME280;39542;-34.932;138.594;2023-12-20T02:47:40;101367.49;;;23.33;48.37
53635;BME280;39542;-34.932;138.594;2023-12-20T02:48:13;101367.77;;;23.33;48.38
53635;BME280;39542;-34.932;138.594;2023-12-20T02:48:47;101361.41;;;23.33;48.39
53635;BME280;39542;-34.932;138.594;2023-12-20T02:49:21;101362.96;;;23.35;48.42
53635;BME280;39542;-34.932;138.594;2023-12-20T02:49:55;101359.45;;;23.35;48.40
53635;BME280;39542;-34.932;138.594;2023-12-20T02:50:29;101357.62;;;23.35;48.41
53635;BME280;39542;-34.932;138.594;2023-12-20T02:51:03;101361.75;;;23.34;48.41